sensor_id;sensor_type;location;lat;lon;timestamp;temperature;humidity
71291;DHT22;59073;51.994;4.448;2022-07-23T00:00:01;16.95;73.76
71291;DHT22;59073;51.994;4.448;2022-07-23T00:02:27;16.87;74.13
71291;DHT22;59073;51.994;4.448;2022-07-23T00:04:52;16.88;74.31
71291;DHT22;59073;51.994;4.448;2022-07-23T00:07:18;16.91;73.69
71291;DHT22;59073;51.994;4.448;2022-07-23T00:09:43;16.88;74.19
71291;DHT22;59073;51.994;4.448;2022-07-23T00:12:09;17.12;73.50
71291;DHT22;59073;51.994;4.448;2022-07-23T00:14:34;16.93;74.74
71291;DHT22;59073;51.994;4.448;2022-07-23T00:17:00;16.63;77.21
71291;DHT22;59073;51.994;4.448;2022-07-23T00:19:25;16.60;77.69
71291;DHT22;59073;51.994;4.448;2022-07-23T00:21:50;16.60;76.44
71291;DHT22;59073;51.994;4.448;2022-07-23T00:24:16;16.76;75.49
71291;DHT22;59073;51.994;4.448;2022-07-23T00:26:41;16.88;74.92
71291;DHT22;59073;51.994;4.448;2022-07-23T00:29:07;16.99;74.66
71291;DHT22;59073;51.994;4.448;2022-07-23T00:31:32;17.07;74.18
71291;DHT22;59073;51.994;4.448;2022-07-23T00:33:58;17.18;74.01
71291;DHT22;59073;51.994;4.448;2022-07-23T00:36:26;17.25;73.85
71291;DHT22;59073;51.994;4.448;2022-07-23T00:38:52;17.34;73.95
71291;DHT22;59073;51.994;4.448;2022-07-23T00:41:18;17.31;74.11
71291;DHT22;59073;51.994;4.448;2022-07-23T00:43:44;17.34;73.64
71291;DHT22;59073;51.994;4.448;2022-07-23T00:46:09;17.35;73.66
71291;DHT22;59073;51.994;4.448;2022-07-23T00:48:35;17.34;73.86
71291;DHT22;59073;51.994;4.448;2022-07-23T00:51:00;17.30;73.91
71291;DHT22;59073;51.994;4.448;2022-07-23T00:53:26;17.25;74.55
71291;DHT22;59073;51.994;4.448;2022-07-23T00:55:53;17.27;74.89
71291;DHT22;59073;51.994;4.448;2022-07-23T00:58:19;17.28;74.65
71291;DHT22;59073;51.994;4.448;2022-07-23T01:00:45;17.25;75.04
71291;DHT22;59073;51.994;4.448;2022-07-23T01:03:11;17.22;74.86
71291;DHT22;59073;51.994;4.448;2022-07-23T01:05:37;17.18;75.19
71291;DHT22;59073;51.994;4.448;2022-07-23T01:08:02;17.11;75.59
71291;DHT22;59073;51.994;4.448;2022-07-23T01:10:28;17.10;75.66
71291;DHT22;59073;51.994;4.448;2022-07-23T01:12:57;17.18;75.31
71291;DHT22;59073;51.994;4.448;2022-07-23T01:15:23;17.20;75.04
71291;DHT22;59073;51.994;4.448;2022-07-23T01:17:49;17.22;74.90
71291;DHT22;59073;51.994;4.448;2022-07-23T01:20:14;17.27;74.79
71291;DHT22;59073;51.994;4.448;2022-07-23T01:22:40;17.17;74.46
71291;DHT22;59073;51.994;4.448;2022-07-23T01:25:06;16.95;74.68
71291;DHT22;59073;51.994;4.448;2022-07-23T01:27:31;16.79;75.90
71291;DHT22;59073;51.994;4.448;2022-07-23T01:29:57;16.85;75.63
71291;DHT22;59073;51.994;4.448;2022-07-23T01:32:24;16.79;75.45
71291;DHT22;59073;51.994;4.448;2022-07-23T01:34:50;16.85;75.40
71291;DHT22;59073;51.994;4.448;2022-07-23T01:37:16;16.95;74.65
71291;DHT22;59073;51.994;4.448;2022-07-23T01:39:41;16.99;74.68
71291;DHT22;59073;51.994;4.448;2022-07-23T01:42:06;17.01;74.74
71291;DHT22;59073;51.994;4.448;2022-07-23T01:44:32;17.04;74.43
71291;DHT22;59073;51.994;4.448;2022-07-23T01:46:57;17.00;74.97
71291;DHT22;59073;51.994;4.448;2022-07-23T01:49:23;16.95;75.16
71291;DHT22;59073;51.994;4.448;2022-07-23T01:51:48;16.94;75.02
71291;DHT22;59073;51.994;4.448;2022-07-23T01:54:30;16.90;74.87
71291;DHT22;59073;51.994;4.448;2022-07-23T01:56:56;16.79;75.06
71291;DHT22;59073;51.994;4.448;2022-07-23T01:59:23;16.69;75.74
71291;DHT22;59073;51.994;4.448;2022-07-23T02:01:48;16.70;76.12
71291;DHT22;59073;51.994;4.448;2022-07-23T02:04:17;16.77;75.39
71291;DHT22;59073;51.994;4.448;2022-07-23T02:06:42;16.83;75.19
71291;DHT22;59073;51.994;4.448;2022-07-23T02:09:08;16.77;75.50
71291;DHT22;59073;51.994;4.448;2022-07-23T02:11:33;16.81;75.41
71291;DHT22;59073;51.994;4.448;2022-07-23T02:13:59;16.83;75.57
71291;DHT22;59073;51.994;4.448;2022-07-23T02:16:24;16.74;75.56
71291;DHT22;59073;51.994;4.448;2022-07-23T02:18:50;16.73;75.98
71291;DHT22;59073;51.994;4.448;2022-07-23T02:21:15;16.71;75.90
71291;DHT22;59073;51.994;4.448;2022-07-23T02:23:40;16.71;76.30
71291;DHT22;59073;51.994;4.448;2022-07-23T02:26:06;16.71;76.19
71291;DHT22;59073;51.994;4.448;2022-07-23T02:28:32;16.69;76.36
71291;DHT22;59073;51.994;4.448;2022-07-23T02:30:57;16.71;76.27
71291;DHT22;59073;51.994;4.448;2022-07-23T02:33:22;16.74;75.85
71291;DHT22;59073;51.994;4.448;2022-07-23T02:35:48;16.76;75.66
71291;DHT22;59073;51.994;4.448;2022-07-23T02:38:13;16.77;75.76
71291;DHT22;59073;51.994;4.448;2022-07-23T02:40:39;16.80;75.42
71291;DHT22;59073;51.994;4.448;2022-07-23T02:43:04;16.83;75.69
71291;DHT22;59073;51.994;4.448;2022-07-23T02:45:30;16.81;75.63
71291;DHT22;59073;51.994;4.448;2022-07-23T02:47:55;16.80;75.05
71291;DHT22;59073;51.994;4.448;2022-07-23T02:50:21;16.76;74.89
71291;DHT22;59073;51.994;4.448;2022-07-23T02:52:46;16.60;75.43
71291;DHT22;59073;51.994;4.448;2022-07-23T02:55:12;16.48;75.91
71291;DHT22;59073;51.994;4.448;2022-07-23T02:57:38;16.42;76.13
71291;DHT22;59073;51.994;4.448;2022-07-23T03:00:05;16.29;76.18
71291;DHT22;59073;51.994;4.448;2022-07-23T03:02:31;16.09;76.93
71291;DHT22;59073;51.994;4.448;2022-07-23T03:04:57;16.02;77.32
71291;DHT22;59073;51.994;4.448;2022-07-23T03:07:23;16.12;77.62
71291;DHT22;59073;51.994;4.448;2022-07-23T03:09:48;16.19;77.26
71291;DHT22;59073;51.994;4.448;2022-07-23T03:12:14;16.13;77.03
71291;DHT22;59073;51.994;4.448;2022-07-23T03:14:40;15.95;76.96
71291;DHT22;59073;51.994;4.448;2022-07-23T03:17:05;15.80;77.73
71291;DHT22;59073;51.994;4.448;2022-07-23T03:19:31;15.78;78.13
71291;DHT22;59073;51.994;4.448;2022-07-23T03:21:56;15.81;78.52
71291;DHT22;59073;51.994;4.448;2022-07-23T03:24:22;15.91;78.63
71291;DHT22;59073;51.994;4.448;2022-07-23T03:26:49;15.95;78.36
71291;DHT22;59073;51.994;4.448;2022-07-23T03:29:14;15.97;78.19
71291;DHT22;59073;51.994;4.448;2022-07-23T03:31:40;15.98;78.68
71291;DHT22;59073;51.994;4.448;2022-07-23T03:34:05;15.94;78.97
71291;DHT22;59073;51.994;4.448;2022-07-23T03:36:31;15.78;79.06
71291;DHT22;59073;51.994;4.448;2022-07-23T03:38:56;15.72;78.79
71291;DHT22;59073;51.994;4.448;2022-07-23T03:41:22;15.57;78.50
71291;DHT22;59073;51.994;4.448;2022-07-23T03:43:47;15.36;79.22
71291;DHT22;59073;51.994;4.448;2022-07-23T03:46:13;15.24;79.68
71291;DHT22;59073;51.994;4.448;2022-07-23T03:48:38;15.16;79.46
71291;DHT22;59073;51.994;4.448;2022-07-23T03:51:04;15.19;79.38
71291;DHT22;59073;51.994;4.448;2022-07-23T03:53:30;15.24;79.31
71291;DHT22;59073;51.994;4.448;2022-07-23T03:55:55;15.24;79.57
71291;DHT22;59073;51.994;4.448;2022-07-23T03:58:21;15.23;79.61
71291;DHT22;59073;51.994;4.448;2022-07-23T04:00:46;15.29;79.58
71291;DHT22;59073;51.994;4.448;2022-07-23T04:03:12;15.29;80.29
71291;DHT22;59073;51.994;4.448;2022-07-23T04:05:37;15.33;79.88
71291;DHT22;59073;51.994;4.448;2022-07-23T04:08:03;15.47;79.61
71291;DHT22;59073;51.994;4.448;2022-07-23T04:10:29;15.62;78.36
71291;DHT22;59073;51.994;4.448;2022-07-23T04:12:54;15.81;77.76
71291;DHT22;59073;51.994;4.448;2022-07-23T04:15:19;15.94;76.85
71291;DHT22;59073;51.994;4.448;2022-07-23T04:17:45;15.78;77.25
71291;DHT22;59073;51.994;4.448;2022-07-23T04:20:12;15.72;77.78
71291;DHT22;59073;51.994;4.448;2022-07-23T04:22:38;15.95;77.46
71291;DHT22;59073;51.994;4.448;2022-07-23T04:25:04;15.91;77.19
71291;DHT22;59073;51.994;4.448;2022-07-23T04:27:29;15.77;78.15
71291;DHT22;59073;51.994;4.448;2022-07-23T04:29:55;15.95;78.18
71291;DHT22;59073;51.994;4.448;2022-07-23T04:32:20;16.34;75.83
71291;DHT22;59073;51.994;4.448;2022-07-23T04:34:46;16.55;75.99
71291;DHT22;59073;51.994;4.448;2022-07-23T04:37:11;17.08;75.96
71291;DHT22;59073;51.994;4.448;2022-07-23T04:39:37;17.56;74.35
71291;DHT22;59073;51.994;4.448;2022-07-23T04:42:02;18.16;71.76
71291;DHT22;59073;51.994;4.448;2022-07-23T04:44:28;18.78;71.27
71291;DHT22;59073;51.994;4.448;2022-07-23T04:46:53;19.16;68.93
71291;DHT22;59073;51.994;4.448;2022-07-23T04:49:19;19.36;68.13
71291;DHT22;59073;51.994;4.448;2022-07-23T04:51:45;18.92;69.35
71291;DHT22;59073;51.994;4.448;2022-07-23T04:54:10;18.23;71.59
71291;DHT22;59073;51.994;4.448;2022-07-23T04:56:35;17.76;72.94
71291;DHT22;59073;51.994;4.448;2022-07-23T04:59:01;17.53;73.76
71291;DHT22;59073;51.994;4.448;2022-07-23T05:01:26;17.39;74.61
71291;DHT22;59073;51.994;4.448;2022-07-23T05:03:52;17.39;74.65
71291;DHT22;59073;51.994;4.448;2022-07-23T05:06:17;18.09;73.22
71291;DHT22;59073;51.994;4.448;2022-07-23T05:08:43;19.08;69.46
71291;DHT22;59073;51.994;4.448;2022-07-23T05:11:08;19.47;68.25
71291;DHT22;59073;51.994;4.448;2022-07-23T05:13:33;19.83;66.83
71291;DHT22;59073;51.994;4.448;2022-07-23T05:15:59;20.05;66.45
71291;DHT22;59073;51.994;4.448;2022-07-23T05:18:24;20.33;65.55
71291;DHT22;59073;51.994;4.448;2022-07-23T05:20:50;20.69;64.49
71291;DHT22;59073;51.994;4.448;2022-07-23T05:23:15;20.89;64.19
71291;DHT22;59073;51.994;4.448;2022-07-23T05:25:41;21.13;63.85
71291;DHT22;59073;51.994;4.448;2022-07-23T05:28:07;21.44;62.73
71291;DHT22;59073;51.994;4.448;2022-07-23T05:30:32;21.92;61.55
71291;DHT22;59073;51.994;4.448;2022-07-23T05:32:58;22.42;60.06
71291;DHT22;59073;51.994;4.448;2022-07-23T05:35:23;22.86;59.01
71291;DHT22;59073;51.994;4.448;2022-07-23T05:37:49;23.19;57.53
71291;DHT22;59073;51.994;4.448;2022-07-23T05:40:14;23.46;57.12
71291;DHT22;59073;51.994;4.448;2022-07-23T05:42:40;23.84;56.00
71291;DHT22;59073;51.994;4.448;2022-07-23T05:45:07;23.96;56.92
71291;DHT22;59073;51.994;4.448;2022-07-23T05:47:47;24.10;56.76
71291;DHT22;59073;51.994;4.448;2022-07-23T05:50:14;23.99;56.15
71291;DHT22;59073;51.994;4.448;2022-07-23T05:52:41;22.94;58.96
71291;DHT22;59073;51.994;4.448;2022-07-23T05:55:07;22.98;59.30
71291;DHT22;59073;51.994;4.448;2022-07-23T05:57:34;24.28;56.08
71291;DHT22;59073;51.994;4.448;2022-07-23T05:59:59;24.83;54.67
71291;DHT22;59073;51.994;4.448;2022-07-23T06:02:25;25.49;52.65
71291;DHT22;59073;51.994;4.448;2022-07-23T06:04:50;25.22;50.89
71291;DHT22;59073;51.994;4.448;2022-07-23T06:07:16;25.77;50.07
71291;DHT22;59073;51.994;4.448;2022-07-23T06:09:41;24.57;51.19
71291;DHT22;59073;51.994;4.448;2022-07-23T06:12:07;24.24;51.27
71291;DHT22;59073;51.994;4.448;2022-07-23T06:14:32;24.24;52.38
71291;DHT22;59073;51.994;4.448;2022-07-23T06:16:58;23.66;53.81
71291;DHT22;59073;51.994;4.448;2022-07-23T06:19:24;22.95;55.72
71291;DHT22;59073;51.994;4.448;2022-07-23T06:21:50;22.56;56.61
71291;DHT22;59073;51.994;4.448;2022-07-23T06:24:15;22.73;54.71
71291;DHT22;59073;51.994;4.448;2022-07-23T06:26:41;23.45;54.45
71291;DHT22;59073;51.994;4.448;2022-07-23T06:29:06;23.66;51.44
71291;DHT22;59073;51.994;4.448;2022-07-23T06:31:32;22.90;55.00
71291;DHT22;59073;51.994;4.448;2022-07-23T06:33:58;23.10;54.39
71291;DHT22;59073;51.994;4.448;2022-07-23T06:36:24;23.37;53.18
71291;DHT22;59073;51.994;4.448;2022-07-23T06:38:49;22.70;53.65
71291;DHT22;59073;51.994;4.448;2022-07-23T06:41:15;21.41;58.39
71291;DHT22;59073;51.994;4.448;2022-07-23T06:43:40;21.75;57.87
71291;DHT22;59073;51.994;4.448;2022-07-23T06:46:06;22.77;55.71
71291;DHT22;59073;51.994;4.448;2022-07-23T06:48:31;23.32;53.22
71291;DHT22;59073;51.994;4.448;2022-07-23T06:50:57;23.63;53.07
71291;DHT22;59073;51.994;4.448;2022-07-23T06:53:23;22.98;54.11
71291;DHT22;59073;51.994;4.448;2022-07-23T06:55:48;22.80;55.16
71291;DHT22;59073;51.994;4.448;2022-07-23T06:58:14;22.92;53.10
71291;DHT22;59073;51.994;4.448;2022-07-23T07:00:40;23.76;52.57
71291;DHT22;59073;51.994;4.448;2022-07-23T07:03:05;24.27;51.62
71291;DHT22;59073;51.994;4.448;2022-07-23T07:05:31;23.89;52.70
71291;DHT22;59073;51.994;4.448;2022-07-23T07:07:56;23.35;51.33
71291;DHT22;59073;51.994;4.448;2022-07-23T07:10:23;23.18;54.76
71291;DHT22;59073;51.994;4.448;2022-07-23T07:12:48;22.77;54.55
71291;DHT22;59073;51.994;4.448;2022-07-23T07:15:14;22.22;55.52
71291;DHT22;59073;51.994;4.448;2022-07-23T07:17:39;21.75;55.84
71291;DHT22;59073;51.994;4.448;2022-07-23T07:20:06;22.03;57.15
71291;DHT22;59073;51.994;4.448;2022-07-23T07:22:31;22.08;56.27
71291;DHT22;59073;51.994;4.448;2022-07-23T07:24:57;20.97;57.24
71291;DHT22;59073;51.994;4.448;2022-07-23T07:27:22;20.92;58.20
71291;DHT22;59073;51.994;4.448;2022-07-23T07:29:48;21.07;60.60
71291;DHT22;59073;51.994;4.448;2022-07-23T07:32:14;21.52;57.56
71291;DHT22;59073;51.994;4.448;2022-07-23T07:34:39;22.09;55.72
71291;DHT22;59073;51.994;4.448;2022-07-23T07:37:05;22.17;57.85
71291;DHT22;59073;51.994;4.448;2022-07-23T07:39:30;22.56;56.98
71291;DHT22;59073;51.994;4.448;2022-07-23T07:41:56;22.63;56.02
71291;DHT22;59073;51.994;4.448;2022-07-23T07:44:21;22.51;53.73
71291;DHT22;59073;51.994;4.448;2022-07-23T07:46:47;22.59;54.25
71291;DHT22;59073;51.994;4.448;2022-07-23T07:49:12;22.29;54.42
71291;DHT22;59073;51.994;4.448;2022-07-23T07:51:38;22.70;54.90
71291;DHT22;59073;51.994;4.448;2022-07-23T07:54:03;22.64;54.24
71291;DHT22;59073;51.994;4.448;2022-07-23T07:56:29;23.18;52.85
71291;DHT22;59073;51.994;4.448;2022-07-23T07:58:54;23.21;53.54
71291;DHT22;59073;51.994;4.448;2022-07-23T08:01:20;22.37;55.29
71291;DHT22;59073;51.994;4.448;2022-07-23T08:03:46;22.80;53.90
71291;DHT22;59073;51.994;4.448;2022-07-23T08:06:12;22.95;53.29
71291;DHT22;59073;51.994;4.448;2022-07-23T08:08:37;23.22;52.49
71291;DHT22;59073;51.994;4.448;2022-07-23T08:11:02;23.80;51.77
71291;DHT22;59073;51.994;4.448;2022-07-23T08:13:28;24.21;48.76
71291;DHT22;59073;51.994;4.448;2022-07-23T08:15:53;24.14;47.65
71291;DHT22;59073;51.994;4.448;2022-07-23T08:18:19;23.87;50.17
71291;DHT22;59073;51.994;4.448;2022-07-23T08:20:45;24.64;47.67
71291;DHT22;59073;51.994;4.448;2022-07-23T08:23:10;25.15;48.60
71291;DHT22;59073;51.994;4.448;2022-07-23T08:25:41;25.26;49.11
71291;DHT22;59073;51.994;4.448;2022-07-23T08:28:09;25.67;45.17
71291;DHT22;59073;51.994;4.448;2022-07-23T08:30:37;25.24;49.79
71291;DHT22;59073;51.994;4.448;2022-07-23T08:35:35;25.47;50.07
71291;DHT22;59073;51.994;4.448;2022-07-23T08:38:04;24.99;47.90
71291;DHT22;59073;51.994;4.448;2022-07-23T08:40:32;25.29;45.96
71291;DHT22;59073;51.994;4.448;2022-07-23T08:42:59;25.20;46.04
71291;DHT22;59073;51.994;4.448;2022-07-23T08:45:26;24.96;46.31
71291;DHT22;59073;51.994;4.448;2022-07-23T08:47:57;25.49;49.98
71291;DHT22;59073;51.994;4.448;2022-07-23T08:50:25;25.32;48.94
71291;DHT22;59073;51.994;4.448;2022-07-23T08:52:52;25.29;47.66
71291;DHT22;59073;51.994;4.448;2022-07-23T08:55:20;25.43;47.97
71291;DHT22;59073;51.994;4.448;2022-07-23T08:57:51;25.46;47.50
71291;DHT22;59073;51.994;4.448;2022-07-23T09:00:19;24.92;48.80
71291;DHT22;59073;51.994;4.448;2022-07-23T09:02:46;24.76;50.10
71291;DHT22;59073;51.994;4.448;2022-07-23T09:05:13;25.42;48.59
71291;DHT22;59073;51.994;4.448;2022-07-23T09:10:44;25.15;49.26
71291;DHT22;59073;51.994;4.448;2022-07-23T09:13:34;24.73;49.67
71291;DHT22;59073;51.994;4.448;2022-07-23T09:16:18;25.54;49.21
71291;DHT22;59073;51.994;4.448;2022-07-23T09:18:48;25.67;47.72
71291;DHT22;59073;51.994;4.448;2022-07-23T09:23:54;25.40;46.82
71291;DHT22;59073;51.994;4.448;2022-07-23T09:32:00;24.13;51.47
71291;DHT22;59073;51.994;4.448;2022-07-23T09:34:35;23.87;51.87
71291;DHT22;59073;51.994;4.448;2022-07-23T09:37:13;24.58;51.60
71291;DHT22;59073;51.994;4.448;2022-07-23T09:39:41;25.44;49.56
71291;DHT22;59073;51.994;4.448;2022-07-23T09:42:16;25.74;47.32
71291;DHT22;59073;51.994;4.448;2022-07-23T09:44:47;26.26;47.35
71291;DHT22;59073;51.994;4.448;2022-07-23T09:47:14;24.85;47.54
71291;DHT22;59073;51.994;4.448;2022-07-23T09:49:39;25.40;51.17
71291;DHT22;59073;51.994;4.448;2022-07-23T09:52:05;26.00;46.26
71291;DHT22;59073;51.994;4.448;2022-07-23T09:54:37;26.35;48.56
71291;DHT22;59073;51.994;4.448;2022-07-23T09:57:08;26.69;46.42
71291;DHT22;59073;51.994;4.448;2022-07-23T09:59:39;26.72;44.91
71291;DHT22;59073;51.994;4.448;2022-07-23T10:02:07;26.97;47.12
71291;DHT22;59073;51.994;4.448;2022-07-23T10:04:34;27.54;47.10
71291;DHT22;59073;51.994;4.448;2022-07-23T10:07:03;27.75;47.62
71291;DHT22;59073;51.994;4.448;2022-07-23T10:09:33;27.10;44.25
71291;DHT22;59073;51.994;4.448;2022-07-23T10:12:05;27.65;48.34
71291;DHT22;59073;51.994;4.448;2022-07-23T10:14:39;27.48;44.43
71291;DHT22;59073;51.994;4.448;2022-07-23T10:17:06;27.55;43.67
71291;DHT22;59073;51.994;4.448;2022-07-23T10:19:32;27.11;44.65
71291;DHT22;59073;51.994;4.448;2022-07-23T10:22:11;26.87;46.05
71291;DHT22;59073;51.994;4.448;2022-07-23T10:24:47;26.90;46.11
71291;DHT22;59073;51.994;4.448;2022-07-23T10:30:55;26.60;46.16
71291;DHT22;59073;51.994;4.448;2022-07-23T10:33:54;26.87;46.37
71291;DHT22;59073;51.994;4.448;2022-07-23T10:36:56;27.55;41.95
71291;DHT22;59073;51.994;4.448;2022-07-23T10:39:28;28.01;40.56
71291;DHT22;59073;51.994;4.448;2022-07-23T10:42:15;27.66;42.90
71291;DHT22;59073;51.994;4.448;2022-07-23T10:44:45;27.40;41.86
71291;DHT22;59073;51.994;4.448;2022-07-23T10:47:26;27.23;41.65
71291;DHT22;59073;51.994;4.448;2022-07-23T10:50:18;27.96;44.00
71291;DHT22;59073;51.994;4.448;2022-07-23T10:58:00;28.29;42.53
71291;DHT22;59073;51.994;4.448;2022-07-23T11:00:29;28.16;42.86
71291;DHT22;59073;51.994;4.448;2022-07-23T11:03:01;26.55;41.89
71291;DHT22;59073;51.994;4.448;2022-07-23T11:05:45;26.08;46.85
71291;DHT22;59073;51.994;4.448;2022-07-23T11:08:16;26.89;45.15
71291;DHT22;59073;51.994;4.448;2022-07-23T11:13:40;27.65;43.26
71291;DHT22;59073;51.994;4.448;2022-07-23T11:16:28;27.57;42.23
71291;DHT22;59073;51.994;4.448;2022-07-23T11:18:58;27.47;41.69
71291;DHT22;59073;51.994;4.448;2022-07-23T11:24:05;27.61;43.96
71291;DHT22;59073;51.994;4.448;2022-07-23T11:31:52;27.79;40.49
71291;DHT22;59073;51.994;4.448;2022-07-23T11:34:45;27.37;44.77
71291;DHT22;59073;51.994;4.448;2022-07-23T11:37:36;26.70;41.25
71291;DHT22;59073;51.994;4.448;2022-07-23T11:40:12;25.27;44.94
71291;DHT22;59073;51.994;4.448;2022-07-23T11:42:40;25.13;48.22
71291;DHT22;59073;51.994;4.448;2022-07-23T11:45:15;26.39;50.14
71291;DHT22;59073;51.994;4.448;2022-07-23T11:47:41;27.23;45.95
71291;DHT22;59073;51.994;4.448;2022-07-23T11:50:07;27.37;41.58
71291;DHT22;59073;51.994;4.448;2022-07-23T11:52:33;27.20;42.84
71291;DHT22;59073;51.994;4.448;2022-07-23T11:55:02;26.93;44.03
71291;DHT22;59073;51.994;4.448;2022-07-23T11:57:31;27.31;40.61
71291;DHT22;59073;51.994;4.448;2022-07-23T12:00:11;27.42;41.62
71291;DHT22;59073;51.994;4.448;2022-07-23T12:02:38;27.03;43.58
71291;DHT22;59073;51.994;4.448;2022-07-23T12:05:04;27.14;41.71
71291;DHT22;59073;51.994;4.448;2022-07-23T12:07:39;27.11;45.49
71291;DHT22;59073;51.994;4.448;2022-07-23T12:10:13;26.93;46.15
71291;DHT22;59073;51.994;4.448;2022-07-23T12:12:46;27.04;45.77
71291;DHT22;59073;51.994;4.448;2022-07-23T12:15:13;26.94;45.40
71291;DHT22;59073;51.994;4.448;2022-07-23T12:17:42;27.40;44.68
71291;DHT22;59073;51.994;4.448;2022-07-23T12:20:12;27.82;43.17
71291;DHT22;59073;51.994;4.448;2022-07-23T12:22:44;27.66;41.64
71291;DHT22;59073;51.994;4.448;2022-07-23T12:25:15;27.48;41.56
71291;DHT22;59073;51.994;4.448;2022-07-23T12:27:43;27.26;41.80
71291;DHT22;59073;51.994;4.448;2022-07-23T12:30:27;27.52;40.58
71291;DHT22;59073;51.994;4.448;2022-07-23T12:32:54;27.57;39.60
71291;DHT22;59073;51.994;4.448;2022-07-23T12:35:22;27.78;42.59
71291;DHT22;59073;51.994;4.448;2022-07-23T12:37:51;27.48;41.98
71291;DHT22;59073;51.994;4.448;2022-07-23T12:40:30;27.71;45.80
71291;DHT22;59073;51.994;4.448;2022-07-23T12:43:03;28.08;43.09
71291;DHT22;59073;51.994;4.448;2022-07-23T12:45:44;27.85;41.23
71291;DHT22;59073;51.994;4.448;2022-07-23T12:48:16;27.91;44.13
71291;DHT22;59073;51.994;4.448;2022-07-23T12:50:56;28.06;44.57
71291;DHT22;59073;51.994;4.448;2022-07-23T12:53:30;28.23;42.47
71291;DHT22;59073;51.994;4.448;2022-07-23T12:56:03;28.36;43.80
71291;DHT22;59073;51.994;4.448;2022-07-23T12:58:51;28.59;42.52
71291;DHT22;59073;51.994;4.448;2022-07-23T13:06:31;28.36;44.48
71291;DHT22;59073;51.994;4.448;2022-07-23T13:08:57;28.98;44.75
71291;DHT22;59073;51.994;4.448;2022-07-23T13:11:23;29.26;43.22
71291;DHT22;59073;51.994;4.448;2022-07-23T13:13:49;28.95;43.92
71291;DHT22;59073;51.994;4.448;2022-07-23T13:16:18;28.59;43.95
71291;DHT22;59073;51.994;4.448;2022-07-23T13:18:43;28.51;41.73
71291;DHT22;59073;51.994;4.448;2022-07-23T13:21:09;27.91;45.25
71291;DHT22;59073;51.994;4.448;2022-07-23T13:23:36;28.33;44.54
71291;DHT22;59073;51.994;4.448;2022-07-23T13:26:02;28.37;44.57
71291;DHT22;59073;51.994;4.448;2022-07-23T13:28:29;27.78;46.24
71291;DHT22;59073;51.994;4.448;2022-07-23T13:30:55;26.80;44.08
71291;DHT22;59073;51.994;4.448;2022-07-23T13:33:24;26.56;48.30
71291;DHT22;59073;51.994;4.448;2022-07-23T13:35:51;26.36;49.28
71291;DHT22;59073;51.994;4.448;2022-07-23T13:38:20;26.99;47.17
71291;DHT22;59073;51.994;4.448;2022-07-23T13:40:49;27.63;48.74
71291;DHT22;59073;51.994;4.448;2022-07-23T13:43:18;27.86;46.54
71291;DHT22;59073;51.994;4.448;2022-07-23T13:45:44;28.13;45.17
71291;DHT22;59073;51.994;4.448;2022-07-23T13:48:12;27.59;46.12
71291;DHT22;59073;51.994;4.448;2022-07-23T13:50:39;27.75;45.44
71291;DHT22;59073;51.994;4.448;2022-07-23T13:53:08;26.93;46.01
71291;DHT22;59073;51.994;4.448;2022-07-23T13:55:41;26.75;48.06
71291;DHT22;59073;51.994;4.448;2022-07-23T13:58:09;26.46;49.35
71291;DHT22;59073;51.994;4.448;2022-07-23T14:00:37;25.69;49.04
71291;DHT22;59073;51.994;4.448;2022-07-23T14:03:03;25.78;49.68
71291;DHT22;59073;51.994;4.448;2022-07-23T14:05:30;26.11;48.35
71291;DHT22;59073;51.994;4.448;2022-07-23T14:07:56;26.48;47.01
71291;DHT22;59073;51.994;4.448;2022-07-23T14:10:23;26.39;48.62
71291;DHT22;59073;51.994;4.448;2022-07-23T14:12:51;26.14;50.20
71291;DHT22;59073;51.994;4.448;2022-07-23T14:15:19;26.51;47.67
71291;DHT22;59073;51.994;4.448;2022-07-23T14:17:45;26.31;47.16
71291;DHT22;59073;51.994;4.448;2022-07-23T14:20:15;26.33;48.48
71291;DHT22;59073;51.994;4.448;2022-07-23T14:22:41;25.87;48.62
71291;DHT22;59073;51.994;4.448;2022-07-23T14:25:09;25.95;49.17
71291;DHT22;59073;51.994;4.448;2022-07-23T14:27:35;26.43;48.55
71291;DHT22;59073;51.994;4.448;2022-07-23T14:30:04;26.57;49.64
71291;DHT22;59073;51.994;4.448;2022-07-23T14:32:30;27.11;48.28
71291;DHT22;59073;51.994;4.448;2022-07-23T14:34:56;26.80;47.69
71291;DHT22;59073;51.994;4.448;2022-07-23T14:37:21;25.94;49.76
71291;DHT22;59073;51.994;4.448;2022-07-23T14:39:47;25.53;48.99
71291;DHT22;59073;51.994;4.448;2022-07-23T14:42:15;25.15;49.55
71291;DHT22;59073;51.994;4.448;2022-07-23T14:44:41;25.22;49.89
71291;DHT22;59073;51.994;4.448;2022-07-23T14:47:07;25.33;48.45
71291;DHT22;59073;51.994;4.448;2022-07-23T14:49:34;25.53;49.58
71291;DHT22;59073;51.994;4.448;2022-07-23T14:52:00;25.16;49.02
71291;DHT22;59073;51.994;4.448;2022-07-23T14:54:27;25.63;47.64
71291;DHT22;59073;51.994;4.448;2022-07-23T14:56:58;26.12;47.69
71291;DHT22;59073;51.994;4.448;2022-07-23T14:59:24;26.52;48.40
71291;DHT22;59073;51.994;4.448;2022-07-23T15:01:52;26.76;46.87
71291;DHT22;59073;51.994;4.448;2022-07-23T15:04:18;26.76;50.08
71291;DHT22;59073;51.994;4.448;2022-07-23T15:06:43;26.38;48.59
71291;DHT22;59073;51.994;4.448;2022-07-23T15:09:10;26.08;48.70
71291;DHT22;59073;51.994;4.448;2022-07-23T15:11:36;26.39;48.07
71291;DHT22;59073;51.994;4.448;2022-07-23T15:14:06;26.21;47.91
71291;DHT22;59073;51.994;4.448;2022-07-23T15:16:35;26.24;49.98
71291;DHT22;59073;51.994;4.448;2022-07-23T15:19:04;26.51;49.52
71291;DHT22;59073;51.994;4.448;2022-07-23T15:21:30;26.73;50.39
71291;DHT22;59073;51.994;4.448;2022-07-23T15:23:57;26.75;47.14
71291;DHT22;59073;51.994;4.448;2022-07-23T15:26:27;26.96;48.16
71291;DHT22;59073;51.994;4.448;2022-07-23T15:28:53;27.29;46.36
71291;DHT22;59073;51.994;4.448;2022-07-23T15:31:18;26.75;45.99
71291;DHT22;59073;51.994;4.448;2022-07-23T15:33:44;26.64;46.41
71291;DHT22;59073;51.994;4.448;2022-07-23T15:36:10;26.80;46.69
71291;DHT22;59073;51.994;4.448;2022-07-23T15:38:36;26.60;46.48
71291;DHT22;59073;51.994;4.448;2022-07-23T15:41:02;26.46;49.32
71291;DHT22;59073;51.994;4.448;2022-07-23T15:43:32;26.66;49.11
71291;DHT22;59073;51.994;4.448;2022-07-23T15:45:58;26.90;46.12
71291;DHT22;59073;51.994;4.448;2022-07-23T15:48:24;27.17;46.02
71291;DHT22;59073;51.994;4.448;2022-07-23T15:50:50;27.27;44.55
71291;DHT22;59073;51.994;4.448;2022-07-23T15:53:16;27.45;45.11
71291;DHT22;59073;51.994;4.448;2022-07-23T15:55:42;27.47;46.81
71291;DHT22;59073;51.994;4.448;2022-07-23T15:58:14;27.61;44.23
71291;DHT22;59073;51.994;4.448;2022-07-23T16:00:40;27.75;43.69
71291;DHT22;59073;51.994;4.448;2022-07-23T16:03:06;27.81;43.53
71291;DHT22;59073;51.994;4.448;2022-07-23T16:05:32;28.01;41.93
71291;DHT22;59073;51.994;4.448;2022-07-23T16:08:00;27.93;41.74
71291;DHT22;59073;51.994;4.448;2022-07-23T16:10:26;27.72;43.08